createdAt,value
2018-05-23T00:00:27.093Z,22.80
2018-05-23T00:01:27.089Z,22.60
2018-05-23T00:02:27.090Z,23.20
2018-05-23T00:03:27.101Z,23.20
2018-05-23T00:04:27.001Z,24.00
2018-05-23T00:05:27.021Z,23.90
2018-05-23T00:06:26.965Z,24.30
2018-05-23T00:07:28.964Z,24.00
2018-05-23T00:08:35.663Z,25.30
2018-05-23T00:10:19.898Z,24.50
2018-05-23T00:11:19.815Z,23.50
2018-05-23T00:13:12.748Z,25.00
2018-05-23T00:14:12.662Z,22.90
2018-05-23T00:16:06.629Z,25.10
2018-05-23T00:17:05.530Z,25.20
2018-05-23T00:18:05.583Z,24.40
2018-05-23T00:19:05.486Z,23.80
2018-05-23T00:20:05.501Z,24.50
2018-05-23T00:21:05.421Z,24.30
2018-05-23T00:22:05.511Z,24.00
2018-05-23T00:23:05.391Z,23.90
2018-05-23T00:24:05.422Z,24.50
2018-05-23T00:25:05.337Z,24.40
2018-05-23T00:26:05.435Z,23.70
2018-05-23T00:27:05.308Z,24.50
2018-05-23T00:28:05.348Z,25.00
2018-05-23T00:29:05.256Z,25.00
2018-05-23T00:30:05.362Z,25.20
2018-05-23T00:31:05.225Z,26.10
2018-05-23T00:32:05.265Z,25.90
2018-05-23T00:33:05.184Z,26.10
2018-05-23T00:34:05.177Z,26.40
2018-05-23T00:35:05.141Z,26.60
2018-05-23T00:36:05.187Z,24.90
2018-05-23T00:37:05.097Z,24.90
2018-05-23T00:38:05.096Z,24.70
2018-05-23T00:39:05.058Z,24.80
2018-05-23T00:40:05.110Z,23.90
2018-05-23T00:41:05.013Z,24.60
2018-05-23T00:42:05.032Z,23.10
2018-05-23T00:43:04.978Z,23.80
2018-05-23T00:44:05.033Z,23.70
2018-05-23T00:45:04.937Z,25.60
2018-05-23T00:46:04.944Z,25.10
2018-05-23T00:47:04.889Z,25.50
2018-05-23T00:48:04.977Z,26.30
2018-05-23T00:49:04.845Z,25.80
2018-05-23T00:50:04.868Z,26.30
2018-05-23T00:51:04.806Z,26.20
2018-05-23T00:52:04.888Z,26.70
2018-05-23T00:53:04.764Z,26.70
2018-05-23T00:54:04.789Z,27.20
2018-05-23T00:55:04.715Z,27.90
2018-05-23T00:56:04.808Z,27.40
2018-05-23T00:57:04.677Z,28.00
2018-05-23T00:58:04.709Z,26.70
2018-05-23T00:59:04.635Z,27.30
2018-05-23T01:00:04.721Z,26.10
2018-05-23T01:01:04.597Z,27.40
2018-05-23T01:02:04.632Z,27.10
2018-05-23T01:03:04.556Z,26.60
2018-05-23T01:04:04.663Z,26.80
2018-05-23T01:05:04.512Z,29.70
2018-05-23T01:06:04.556Z,29.00
2018-05-23T01:07:04.471Z,29.60
2018-05-23T01:08:04.569Z,28.30
2018-05-23T01:09:04.427Z,27.80
2018-05-23T01:10:04.479Z,27.90
2018-05-23T01:11:04.388Z,27.00
2018-05-23T01:12:04.389Z,26.80
2018-05-23T01:13:04.344Z,28.50
2018-05-23T01:14:04.415Z,27.70
2018-05-23T01:15:04.302Z,27.60
2018-05-23T01:16:04.314Z,29.30
2018-05-23T01:17:04.264Z,29.50
2018-05-23T01:18:04.322Z,29.00
2018-05-23T01:19:04.219Z,28.90
2018-05-23T01:20:04.238Z,28.90
2018-05-23T01:21:04.175Z,28.10
2018-05-23T01:22:04.246Z,29.30
2018-05-23T01:23:04.132Z,29.40
2018-05-23T01:24:04.158Z,30.30
2018-05-23T01:25:04.091Z,30.00
2018-05-23T01:26:04.168Z,30.20
2018-05-23T01:27:04.051Z,30.80
2018-05-23T01:28:04.082Z,31.40
2018-05-23T01:29:04.009Z,31.30
2018-05-23T01:30:04.092Z,29.60
2018-05-23T01:31:03.975Z,30.60
2018-05-23T01:32:04.002Z,31.20
2018-05-23T01:33:03.983Z,29.20
2018-05-23T01:34:04.017Z,30.30
2018-05-23T01:35:03.877Z,30.20
2018-05-23T01:36:03.921Z,30.80
2018-05-23T01:37:03.839Z,30.20
2018-05-23T01:38:03.834Z,30.80
2018-05-23T01:39:03.800Z,29.80
2018-05-23T01:40:03.845Z,31.30
2018-05-23T01:41:03.760Z,30.50
2018-05-23T01:42:03.768Z,31.30
2018-05-23T01:43:03.714Z,31.50
2018-05-23T01:44:03.769Z,29.30
2018-05-23T01:45:03.669Z,29.50
2018-05-23T01:46:03.680Z,29.20
2018-05-23T01:47:03.627Z,30.70
2018-05-23T01:48:03.765Z,31.40
2018-05-23T01:49:03.587Z,29.80
2018-05-23T01:50:03.604Z,30.10
2018-05-23T01:51:03.550Z,31.60
2018-05-23T01:52:03.614Z,31.50
2018-05-23T01:53:03.503Z,30.50
2018-05-23T01:54:03.528Z,31.20
2018-05-23T01:55:03.470Z,31.60
2018-05-23T01:56:03.539Z,31.60
2018-05-23T01:57:03.420Z,30.50
2018-05-23T01:58:03.452Z,29.60
2018-05-23T01:59:03.381Z,30.50
2018-05-23T02:00:03.464Z,29.60
2018-05-23T02:01:03.330Z,29.90
2018-05-23T02:02:03.365Z,31.40
2018-05-23T02:03:03.293Z,32.80
2018-05-23T02:04:03.388Z,31.50
2018-05-23T02:05:03.251Z,33.30
2018-05-23T02:06:03.301Z,32.50
2018-05-23T02:07:03.224Z,31.60
2018-05-23T02:08:03.308Z,32.40
2018-05-23T02:09:03.164Z,31.50
2018-05-23T02:10:03.219Z,31.80
2018-05-23T02:11:03.130Z,32.80
2018-05-23T02:12:03.129Z,33.10
2018-05-23T02:13:03.087Z,33.90
2018-05-23T02:14:03.140Z,34.10
2018-05-23T02:15:03.047Z,32.60
2018-05-23T02:16:03.045Z,33.10
2018-05-23T02:17:02.998Z,31.50
2018-05-23T02:18:03.059Z,31.30
2018-05-23T02:19:02.960Z,33.00
2018-05-23T02:20:02.975Z,33.20
2018-05-23T02:21:02.913Z,32.90
2018-05-23T02:22:02.982Z,34.00
2018-05-23T02:23:02.883Z,32.80
2018-05-23T02:24:02.895Z,35.50
2018-05-23T02:25:02.829Z,32.10
2018-05-23T02:26:02.905Z,35.00
2018-05-23T02:27:02.789Z,34.60
2018-05-23T02:28:02.811Z,34.40
2018-05-23T02:29:02.747Z,34.20
2018-05-23T02:30:02.827Z,32.80
2018-05-23T02:31:02.704Z,32.90
2018-05-23T02:32:02.737Z,33.60
2018-05-23T02:33:02.662Z,34.10
2018-05-23T02:34:02.749Z,32.70
2018-05-23T02:35:02.623Z,33.30
2018-05-23T02:36:02.661Z,34.20
2018-05-23T02:37:02.583Z,34.60
2018-05-23T02:38:02.570Z,34.30
2018-05-23T02:39:02.535Z,33.50
2018-05-23T02:40:02.582Z,34.00
2018-05-23T02:41:02.494Z,34.70
2018-05-23T02:42:02.495Z,34.00
2018-05-23T02:43:02.446Z,33.80
2018-05-23T02:44:02.507Z,34.50
2018-05-23T02:45:02.415Z,35.10
2018-05-23T02:46:02.418Z,34.90
2018-05-23T02:47:02.420Z,34.60
2018-05-23T02:48:02.425Z,35.40
2018-05-23T02:49:02.324Z,36.20
2018-05-23T02:51:27.068Z,35.90
2018-05-23T02:52:27.161Z,35.90
2018-05-23T02:53:26.567Z,35.40
2018-05-23T02:54:26.250Z,35.40
2018-05-23T02:55:25.642Z,35.30
2018-05-23T02:56:27.465Z,35.70
2018-05-23T02:57:25.008Z,38.10
2018-05-23T02:58:24.965Z,36.50
2018-05-23T02:59:25.514Z,35.40
2018-05-23T03:00:24.692Z,36.70
2018-05-23T03:01:24.582Z,38.00
2018-05-23T03:02:25.754Z,35.20
2018-05-23T03:03:25.821Z,37.10
2018-05-23T03:04:26.395Z,37.30
2018-05-23T03:05:24.264Z,36.80
2018-05-23T03:06:24.443Z,35.20
2018-05-23T03:07:23.850Z,35.10
2018-05-23T03:08:23.724Z,38.30
2018-05-23T03:09:23.772Z,36.00
2018-05-23T03:10:23.729Z,37.40
2018-05-23T03:11:23.741Z,36.00
2018-05-23T03:12:23.714Z,36.10
2018-05-23T03:13:23.662Z,36.20
2018-05-23T03:14:23.696Z,36.40
2018-05-23T03:15:23.623Z,35.10
2018-05-23T03:16:23.622Z,35.00
2018-05-23T03:17:23.627Z,36.60
2018-05-23T03:18:23.621Z,38.30
2018-05-23T03:19:23.554Z,36.00
2018-05-23T03:20:23.542Z,35.40
2018-05-23T03:21:23.558Z,35.70
2018-05-23T03:22:23.399Z,35.90
2018-05-23T03:23:23.451Z,36.10
2018-05-23T03:24:23.469Z,36.40
2018-05-23T03:25:23.381Z,37.30
2018-05-23T03:26:23.366Z,36.90
2018-05-23T03:27:23.392Z,37.30
2018-05-23T03:28:23.335Z,37.30
2018-05-23T03:29:23.326Z,37.60
2018-05-23T03:30:23.352Z,37.00
2018-05-23T03:31:23.316Z,37.90
2018-05-23T03:32:23.228Z,37.30
2018-05-23T03:33:23.235Z,37.90
2018-05-23T03:34:23.286Z,36.50
2018-05-23T03:35:23.286Z,36.40
2018-05-23T03:36:23.283Z,36.70
2018-05-23T03:37:23.247Z,36.60
2018-05-23T03:38:23.192Z,36.60
2018-05-23T03:39:23.163Z,36.80
2018-05-23T03:40:23.105Z,38.30
2018-05-23T03:41:23.079Z,38.30
2018-05-23T03:42:23.008Z,37.40
2018-05-23T03:43:22.948Z,37.80
2018-05-23T03:44:23.095Z,36.90
2018-05-23T03:45:22.993Z,38.60
2018-05-23T03:46:23.010Z,37.10
2018-05-23T03:47:22.922Z,38.80
2018-05-23T03:48:23.015Z,38.50
2018-05-23T03:49:22.919Z,38.20
2018-05-23T03:50:22.877Z,40.10
2018-05-23T03:51:22.840Z,40.40
2018-05-23T03:52:22.768Z,41.60
2018-05-23T03:53:22.805Z,40.10
2018-05-23T03:54:22.799Z,41.50
2018-05-23T03:55:22.749Z,41.70
2018-05-23T03:56:22.679Z,41.30
2018-05-23T03:57:22.744Z,40.60
2018-05-23T03:58:22.716Z,41.80
2018-05-23T03:59:22.612Z,41.90
2018-05-23T04:00:22.712Z,40.40
2018-05-23T04:01:22.633Z,42.20
2018-05-23T04:02:22.657Z,41.10
2018-05-23T04:03:22.596Z,41.10
2018-05-23T04:04:22.551Z,41.30
2018-05-23T04:05:22.601Z,40.70
2018-05-23T04:06:22.557Z,42.30
2018-05-23T04:07:22.521Z,43.60
2018-05-23T04:08:22.490Z,42.50
2018-05-23T04:09:22.493Z,41.40
2018-05-23T04:10:22.430Z,39.90
2018-05-23T04:11:22.449Z,42.40
2018-05-23T04:12:22.388Z,41.40
2018-05-23T04:13:22.372Z,42.10
2018-05-23T04:14:22.403Z,43.10
2018-05-23T04:15:22.386Z,40.70
2018-05-23T04:16:22.393Z,43.20
2018-05-23T04:17:22.333Z,43.50
2018-05-23T04:18:22.303Z,41.60
2018-05-23T04:19:22.297Z,42.00
2018-05-23T04:20:22.314Z,44.00
2018-05-23T04:21:22.258Z,43.10
2018-05-23T04:22:22.193Z,41.90
2018-05-23T04:23:22.160Z,41.80
2018-05-23T04:24:22.143Z,43.20
2018-05-23T04:25:22.204Z,44.10
2018-05-23T04:26:22.121Z,42.80
2018-05-23T04:27:22.092Z,43.30
2018-05-23T04:28:22.065Z,42.00
2018-05-23T04:29:22.023Z,42.80
2018-05-23T04:30:22.043Z,43.00
2018-05-23T04:31:22.115Z,40.30
2018-05-23T04:32:21.927Z,42.50
2018-05-23T04:33:22.152Z,43.60
2018-05-23T04:34:22.016Z,42.50
2018-05-23T04:35:22.008Z,43.90
2018-05-23T04:36:21.862Z,42.00
2018-05-23T04:37:21.963Z,42.00
2018-05-23T04:38:21.833Z,42.40
2018-05-23T04:39:21.904Z,43.60
2018-05-23T04:40:21.856Z,42.60
2018-05-23T04:41:21.798Z,44.00
2018-05-23T04:42:21.750Z,44.50
2018-05-23T04:43:21.811Z,44.00
2018-05-23T04:44:21.704Z,43.10
2018-05-23T04:45:21.756Z,42.10
2018-05-23T04:46:21.859Z,43.60
2018-05-23T04:47:21.649Z,41.80
2018-05-23T04:48:21.713Z,41.30
2018-05-23T04:49:21.644Z,41.50
2018-05-23T04:50:21.605Z,41.40
2018-05-23T04:51:21.556Z,40.60
2018-05-23T04:52:21.606Z,42.30
2018-05-23T04:53:21.490Z,41.10
2018-05-23T04:55:41.754Z,41.10
2018-05-23T04:56:41.706Z,41.90
2018-05-23T04:58:34.608Z,39.20
2018-05-23T04:59:34.515Z,40.20
2018-05-23T05:01:27.454Z,38.50
2018-05-23T05:02:27.372Z,38.30
2018-05-23T05:04:20.300Z,37.70
2018-05-23T05:05:20.223Z,37.70
2018-05-23T05:07:13.152Z,38.10
2018-05-23T05:08:13.067Z,36.10
2018-05-23T05:10:06.118Z,35.50
2018-05-23T05:11:05.912Z,35.40
2018-05-23T05:12:59.876Z,35.80
2018-05-23T05:13:58.765Z,35.70
2018-05-23T05:15:52.729Z,34.40
2018-05-23T05:16:51.615Z,35.20
2018-05-23T05:18:45.621Z,33.40
2018-05-23T05:19:44.467Z,34.60
2018-05-23T05:21:38.431Z,33.60
2018-05-23T05:22:37.323Z,34.20
2018-05-23T05:24:31.281Z,33.90
2018-05-23T05:25:30.188Z,34.10
2018-05-23T05:27:24.135Z,32.00
2018-05-23T05:28:23.020Z,32.20
2018-05-23T05:29:23.097Z,32.40
2018-05-23T05:30:22.977Z,32.60
2018-05-23T05:31:23.006Z,31.70
2018-05-23T05:32:22.937Z,32.10
2018-05-23T05:33:23.018Z,32.10
2018-05-23T05:34:22.896Z,29.30
2018-05-23T05:35:22.929Z,29.60
2018-05-23T05:36:22.857Z,31.40
2018-05-23T05:37:22.942Z,29.20
2018-05-23T05:38:22.812Z,29.40
2018-05-23T05:39:22.852Z,30.20
2018-05-23T05:40:22.838Z,29.20
2018-05-23T05:41:22.861Z,28.20
2018-05-23T05:42:22.729Z,29.60
2018-05-23T05:43:22.775Z,28.00
2018-05-23T05:44:22.688Z,27.20
2018-05-23T05:45:22.679Z,27.20
2018-05-23T05:46:22.648Z,26.30
2018-05-23T05:47:22.694Z,26.00
2018-05-23T05:48:22.598Z,25.70
2018-05-23T05:49:22.605Z,25.30
2018-05-23T05:50:22.566Z,24.70
2018-05-23T05:51:22.620Z,24.00
2018-05-23T05:52:22.522Z,22.60
2018-05-23T05:53:22.525Z,22.50
2018-05-23T05:54:22.487Z,22.40
2018-05-23T05:55:22.536Z,23.10
2018-05-23T05:56:22.436Z,22.90
2018-05-23T05:57:22.448Z,22.30
2018-05-23T05:58:22.400Z,21.70
2018-05-23T05:59:22.462Z,21.70
2018-05-23T06:00:22.357Z,19.90
2018-05-23T06:01:22.372Z,19.90
2018-05-23T06:02:22.318Z,18.90
2018-05-23T06:03:22.385Z,19.80
2018-05-23T06:04:22.278Z,19.30
2018-05-23T06:05:22.291Z,18.60
2018-05-23T06:06:22.233Z,18.20
2018-05-23T06:07:22.308Z,17.80
2018-05-23T06:08:22.193Z,17.10
2018-05-23T06:09:22.219Z,17.90
2018-05-23T06:10:22.150Z,17.40
2018-05-23T06:11:22.229Z,17.10
2018-05-23T06:12:22.108Z,17.00
2018-05-23T06:13:22.140Z,17.50
2018-05-23T06:14:22.068Z,17.10
2018-05-23T06:15:22.154Z,17.20
2018-05-23T06:16:22.025Z,17.00
2018-05-23T06:17:22.064Z,16.70
2018-05-23T06:18:21.985Z,16.50
2018-05-23T06:19:22.078Z,16.40
2018-05-23T06:20:21.948Z,15.80
2018-05-23T06:21:21.988Z,16.50
2018-05-23T06:22:21.921Z,15.60
2018-05-23T06:23:22.002Z,14.90
2018-05-23T06:24:21.859Z,14.90
2018-05-23T06:25:21.914Z,14.60
2018-05-23T06:26:21.818Z,14.30
2018-05-23T06:27:21.852Z,14.60
2018-05-23T06:28:21.785Z,14.80
2018-05-23T06:29:21.838Z,15.40
2018-05-23T06:30:21.748Z,14.90
2018-05-23T06:31:21.749Z,15.00
2018-05-23T06:32:21.697Z,14.10
2018-05-23T06:33:21.755Z,14.30
2018-05-23T06:34:21.666Z,14.00
2018-05-23T06:35:21.667Z,14.10
2018-05-23T06:36:21.619Z,13.90
2018-05-23T06:37:21.675Z,14.00
2018-05-23T06:38:21.575Z,14.50
2018-05-23T06:39:21.588Z,14.30
2018-05-23T06:40:21.534Z,14.60
2018-05-23T06:41:21.603Z,14.20
2018-05-23T06:42:21.494Z,14.20
2018-05-23T06:43:21.507Z,14.10
2018-05-23T06:44:21.451Z,14.40
2018-05-23T06:45:21.521Z,14.20
2018-05-23T06:46:21.415Z,14.30
2018-05-23T06:47:21.430Z,14.20
2018-05-23T06:48:21.370Z,14.30
2018-05-23T06:49:21.442Z,14.90
2018-05-23T06:50:21.339Z,14.70
2018-05-23T06:51:21.352Z,14.90
2018-05-23T06:52:21.291Z,14.60
2018-05-23T06:53:21.391Z,14.40
2018-05-23T06:54:21.250Z,14.40
2018-05-23T06:55:21.276Z,14.60
2018-05-23T06:56:21.207Z,13.70
2018-05-23T06:57:21.291Z,14.40
2018-05-23T06:58:21.171Z,14.20
2018-05-23T06:59:21.198Z,14.90
2018-05-23T07:00:21.135Z,14.50
2018-05-23T07:01:21.211Z,15.00
2018-05-23T07:02:21.088Z,14.20
2018-05-23T07:03:21.119Z,14.70
2018-05-23T07:04:21.061Z,15.10
2018-05-23T07:05:21.133Z,14.30
2018-05-23T07:06:21.011Z,15.10
2018-05-23T07:07:21.044Z,14.60
2018-05-23T07:08:20.967Z,14.60
2018-05-23T07:09:21.056Z,14.20
2018-05-23T07:10:20.928Z,13.80
2018-05-23T07:11:20.967Z,14.10
2018-05-23T07:12:20.886Z,13.60
2018-05-23T07:13:20.978Z,14.60
2018-05-23T07:14:20.852Z,14.70
2018-05-23T07:15:20.888Z,14.30
2018-05-23T07:16:20.811Z,14.20
2018-05-23T07:17:20.901Z,14.00
2018-05-23T07:18:20.776Z,14.00
2018-05-23T07:19:20.812Z,13.70
2018-05-23T07:20:20.729Z,14.10
2018-05-23T07:21:20.726Z,14.50
2018-05-23T07:22:20.689Z,14.10
2018-05-23T07:23:20.736Z,14.30
2018-05-23T07:24:20.648Z,14.60
2018-05-23T07:25:20.656Z,13.80
2018-05-23T07:26:20.610Z,13.40
2018-05-23T07:27:20.658Z,14.30
2018-05-23T07:28:20.569Z,14.20
2018-05-23T07:29:20.574Z,14.10
2018-05-23T07:30:20.528Z,14.20
2018-05-23T07:31:20.580Z,14.80
2018-05-23T07:32:20.494Z,14.60
2018-05-23T07:33:20.491Z,14.30
2018-05-23T07:34:20.451Z,14.90
2018-05-23T07:35:20.503Z,14.60
2018-05-23T07:36:20.418Z,15.20
2018-05-23T07:37:20.415Z,15.60
2018-05-23T07:38:20.465Z,15.10
2018-05-23T07:39:20.434Z,14.40
2018-05-23T07:40:20.335Z,14.80
2018-05-23T07:41:20.342Z,15.10
2018-05-23T07:42:20.296Z,14.90
2018-05-23T07:43:20.355Z,15.20
2018-05-23T07:44:20.267Z,16.00
2018-05-23T07:45:20.269Z,15.70
2018-05-23T07:46:20.218Z,15.30
2018-05-23T07:47:20.274Z,15.00
2018-05-23T07:48:20.179Z,15.30
2018-05-23T07:49:20.180Z,15.50
2018-05-23T07:50:20.140Z,15.60
2018-05-23T07:51:20.194Z,15.40
2018-05-23T07:52:20.106Z,15.20
2018-05-23T07:53:20.127Z,14.80
2018-05-23T07:54:20.071Z,14.90
2018-05-23T07:55:20.129Z,14.70
2018-05-23T07:56:20.028Z,15.10
2018-05-23T07:57:20.031Z,14.80
2018-05-23T07:58:19.991Z,15.30
2018-05-23T07:59:20.039Z,15.40
2018-05-23T08:00:19.949Z,15.00
2018-05-23T08:01:19.947Z,15.70
2018-05-23T08:02:19.924Z,14.90
2018-05-23T08:03:19.966Z,14.50
2018-05-23T08:04:19.864Z,15.30
2018-05-23T08:05:19.870Z,15.00
2018-05-23T08:06:19.846Z,14.50
2018-05-23T08:07:19.882Z,15.40
2018-05-23T08:08:19.792Z,15.10
2018-05-23T08:09:19.792Z,14.90
2018-05-23T08:10:19.764Z,15.00
2018-05-23T08:11:19.805Z,15.30
2018-05-23T08:12:19.717Z,15.60
2018-05-23T08:13:27.416Z,16.10
2018-05-23T08:15:12.686Z,15.80
2018-05-23T08:16:12.603Z,15.70
2018-05-23T08:18:05.537Z,16.70
2018-05-23T08:19:05.456Z,16.20
2018-05-23T08:20:58.387Z,16.20
2018-05-23T08:21:58.308Z,16.00
2018-05-23T08:23:51.244Z,16.00
2018-05-23T08:24:51.164Z,16.00
2018-05-23T08:26:44.098Z,15.70
2018-05-23T08:27:44.015Z,15.60
2018-05-23T08:29:36.966Z,16.10
2018-05-23T08:30:36.866Z,17.20
2018-05-23T08:32:29.799Z,16.70
2018-05-23T08:33:29.719Z,16.50
2018-05-23T08:35:22.654Z,16.00
2018-05-23T08:36:22.590Z,16.00
2018-05-23T08:38:15.599Z,16.70
2018-05-23T08:39:15.513Z,16.90
2018-05-23T08:41:08.446Z,16.00
2018-05-23T08:42:08.365Z,16.60
2018-05-23T08:44:01.315Z,16.00
2018-05-23T08:45:01.226Z,15.80
2018-05-23T08:46:54.151Z,15.80
2018-05-23T08:47:54.070Z,17.10
2018-05-23T08:49:47.108Z,16.00
2018-05-23T08:50:47.027Z,16.80
2018-05-23T08:52:39.951Z,16.60
2018-05-23T08:53:39.874Z,17.90
2018-05-23T08:55:32.815Z,17.20
2018-05-23T08:56:32.724Z,17.00
2018-05-23T08:58:25.754Z,16.80
2018-05-23T08:59:25.675Z,17.30
2018-05-23T09:01:18.619Z,17.80
2018-05-23T09:02:18.526Z,18.30
2018-05-23T09:04:11.562Z,18.50
2018-05-23T09:05:11.485Z,18.60
2018-05-23T09:07:04.531Z,18.20
2018-05-23T09:08:04.446Z,18.40
2018-05-23T09:12:10.315Z,18.20
2018-05-23T09:12:29.841Z,17.70
2018-05-23T09:14:22.782Z,18.00
2018-05-23T09:15:22.704Z,18.30
2018-05-23T09:17:15.658Z,17.90
2018-05-23T09:18:15.573Z,17.70
2018-05-23T09:20:08.612Z,18.00
2018-05-23T09:21:08.517Z,16.80
2018-05-23T09:23:01.567Z,18.20
2018-05-23T09:24:01.461Z,17.80
2018-05-23T09:25:54.423Z,18.30
2018-05-23T09:26:54.341Z,18.20
2018-05-23T09:28:47.381Z,18.30
2018-05-23T09:29:47.295Z,17.80
2018-05-23T09:31:40.344Z,17.60
2018-05-23T09:32:40.247Z,17.20
2018-05-23T09:34:33.291Z,17.60
2018-05-23T09:35:33.202Z,17.40
2018-05-23T09:37:26.248Z,17.90
2018-05-23T09:38:26.158Z,18.60
2018-05-23T09:40:19.209Z,18.50
2018-05-23T09:41:19.125Z,18.20
2018-05-23T09:43:12.263Z,17.70
2018-05-23T09:44:12.069Z,18.20
2018-05-23T09:45:12.216Z,18.20
2018-05-23T09:46:12.037Z,18.00
2018-05-23T09:47:12.159Z,17.80
2018-05-23T09:48:12.022Z,18.00
2018-05-23T09:49:12.067Z,18.20
2018-05-23T09:50:11.978Z,17.50
2018-05-23T09:51:12.082Z,17.30
2018-05-23T09:52:11.944Z,17.40
2018-05-23T09:53:12.095Z,17.40
2018-05-23T09:54:11.913Z,18.40
2018-05-23T09:55:12.151Z,18.10
2018-05-23T09:56:11.882Z,17.20
2018-05-23T09:57:12.025Z,16.60
2018-05-23T09:58:11.857Z,16.20
2018-05-23T09:59:11.937Z,16.10
2018-05-23T10:00:11.821Z,16.70
2018-05-23T10:01:11.950Z,17.20
2018-05-23T10:02:11.791Z,16.30
2018-05-23T10:03:11.850Z,15.70
2018-05-23T10:04:11.762Z,16.70
2018-05-23T10:05:11.875Z,17.00
2018-05-23T10:06:11.732Z,16.20
2018-05-23T10:07:11.893Z,16.20
2018-05-23T10:08:11.700Z,16.00
2018-05-23T10:09:11.800Z,16.40
2018-05-23T10:10:11.676Z,16.50
2018-05-23T10:11:11.817Z,15.80
2018-05-23T10:12:11.646Z,14.90
2018-05-23T10:13:11.732Z,14.90
2018-05-23T10:14:11.615Z,13.40
2018-05-23T10:15:11.743Z,12.90
2018-05-23T10:16:11.583Z,13.80
2018-05-23T10:17:11.773Z,13.80
2018-05-23T10:18:11.560Z,13.20
2018-05-23T10:19:11.670Z,12.90
2018-05-23T10:20:11.526Z,13.50
2018-05-23T10:21:11.682Z,12.90
2018-05-23T10:22:11.497Z,13.50
2018-05-23T10:23:11.595Z,13.20
2018-05-23T10:24:11.473Z,13.60
2018-05-23T10:25:11.612Z,12.80
2018-05-23T10:26:11.444Z,12.70
2018-05-23T10:27:11.615Z,13.70
2018-05-23T10:28:11.416Z,14.20
2018-05-23T10:29:11.534Z,14.40
2018-05-23T10:30:11.384Z,13.40
2018-05-23T10:31:11.547Z,14.60
2018-05-23T10:32:11.357Z,14.20
2018-05-23T10:33:11.457Z,15.20
2018-05-23T10:34:11.331Z,14.50
2018-05-23T10:35:11.472Z,15.40
2018-05-23T10:36:11.300Z,16.20
2018-05-23T10:37:11.490Z,15.80
2018-05-23T10:38:11.272Z,15.30
2018-05-23T10:39:11.439Z,15.90
2018-05-23T10:40:11.246Z,16.40
2018-05-23T10:41:11.415Z,17.20
2018-05-23T10:42:11.219Z,17.20
2018-05-23T10:43:11.326Z,16.70
2018-05-23T10:44:11.196Z,16.70
2018-05-23T10:45:11.344Z,16.40
2018-05-23T10:46:11.167Z,16.10
2018-05-23T10:47:11.354Z,15.50
2018-05-23T10:48:11.135Z,15.80
2018-05-23T10:49:12.188Z,15.30
2018-05-23T10:50:11.105Z,15.10
2018-05-23T10:51:11.180Z,13.90
2018-05-23T10:52:11.113Z,13.90
2018-05-23T10:53:11.089Z,13.30
2018-05-23T10:54:11.057Z,12.60
2018-05-23T10:55:11.106Z,12.50
2018-05-23T10:56:11.026Z,13.60
2018-05-23T10:57:11.171Z,14.70
2018-05-23T10:58:11.002Z,15.20
2018-05-23T10:59:11.131Z,14.30
2018-05-23T11:00:11.003Z,14.80
2018-05-23T11:01:11.038Z,13.60
2018-05-23T11:02:10.945Z,13.00
2018-05-23T11:03:11.047Z,12.80
2018-05-23T11:04:10.922Z,12.20
2018-05-23T11:05:10.958Z,13.60
2018-05-23T11:06:10.893Z,12.70
2018-05-23T11:07:10.981Z,12.90
2018-05-23T11:08:10.881Z,12.30
2018-05-23T11:09:10.894Z,13.10
2018-05-23T11:10:10.868Z,12.20
2018-05-23T11:11:10.921Z,11.40
2018-05-23T11:12:10.820Z,12.00
2018-05-23T11:13:10.906Z,11.20
2018-05-23T11:14:10.795Z,10.90
2018-05-23T11:15:10.837Z,10.80
2018-05-23T11:16:10.777Z,9.90
2018-05-23T11:17:10.829Z,10.30
2018-05-23T11:18:10.764Z,10.10
2018-05-23T11:19:10.865Z,10.00
2018-05-23T11:20:10.725Z,9.60
2018-05-23T11:21:10.775Z,9.70
2018-05-23T11:22:10.704Z,9.60
2018-05-23T11:23:10.793Z,10.00
2018-05-23T11:24:10.672Z,9.60
2018-05-23T11:25:10.801Z,10.30
2018-05-23T11:26:10.658Z,10.30
2018-05-23T11:27:10.722Z,9.80
2018-05-23T11:28:10.628Z,9.80
2018-05-23T11:29:10.617Z,10.00
2018-05-23T11:30:10.605Z,10.00
2018-05-23T11:31:10.647Z,10.60
2018-05-23T11:32:10.582Z,10.30
2018-05-23T11:33:10.662Z,10.00
2018-05-23T11:34:10.567Z,9.00
2018-05-23T11:35:10.547Z,9.30
2018-05-23T11:36:10.590Z,9.50
2018-05-23T11:37:10.529Z,8.60
2018-05-23T11:38:10.597Z,8.20
2018-05-23T11:39:10.501Z,8.20
2018-05-23T11:40:10.504Z,8.40
2018-05-23T11:41:10.472Z,7.90
2018-05-23T11:42:10.520Z,8.40
2018-05-23T11:43:10.456Z,7.70
2018-05-23T11:44:10.550Z,7.80
2018-05-23T11:45:10.425Z,7.70
2018-05-23T11:46:10.446Z,8.00
2018-05-23T11:47:10.398Z,8.80
2018-05-23T11:48:10.467Z,8.20
2018-05-23T11:49:10.371Z,7.90
2018-05-23T11:50:10.475Z,8.10
2018-05-23T11:51:10.350Z,8.50
2018-05-23T11:52:10.429Z,7.60
2018-05-23T11:53:10.336Z,7.70
2018-05-23T11:54:10.397Z,7.80
2018-05-23T11:55:10.304Z,7.50
2018-05-23T11:56:10.307Z,7.70
2018-05-23T11:57:10.268Z,6.50
2018-05-23T11:58:10.324Z,5.80
2018-05-23T11:59:10.245Z,5.80
2018-05-23T12:00:10.334Z,5.60
2018-05-23T12:01:10.235Z,5.60
2018-05-23T12:02:10.247Z,5.30
2018-05-23T12:03:10.205Z,5.30
2018-05-23T12:04:10.254Z,4.30
2018-05-23T12:05:10.177Z,3.50
2018-05-23T12:06:10.287Z,3.60
2018-05-23T12:07:10.149Z,3.10
2018-05-23T12:08:10.189Z,3.00
2018-05-23T12:09:10.125Z,2.90
2018-05-23T12:10:10.197Z,3.00
2018-05-23T12:11:10.104Z,3.10
2018-05-23T12:12:10.115Z,3.10
2018-05-23T12:13:10.072Z,3.00
2018-05-23T12:14:10.129Z,2.90
2018-05-23T12:15:10.046Z,2.90
2018-05-23T12:16:10.143Z,3.20
2018-05-23T12:17:10.020Z,2.90
2018-05-23T12:18:10.052Z,2.80
2018-05-23T12:19:10.000Z,2.80
2018-05-23T12:20:10.064Z,2.90
2018-05-23T12:21:09.971Z,2.90
2018-05-23T12:22:09.978Z,2.50
2018-05-23T12:23:09.943Z,2.60
2018-05-23T12:24:09.992Z,2.80
2018-05-23T12:25:09.922Z,2.80
2018-05-23T12:26:10.007Z,2.90
2018-05-23T12:27:09.895Z,2.60
2018-05-23T12:28:09.916Z,2.70
2018-05-23T12:29:09.868Z,2.80
2018-05-23T12:30:09.933Z,2.50
2018-05-23T12:31:09.846Z,2.60
2018-05-23T12:32:09.844Z,2.50
2018-05-23T12:33:09.819Z,2.40
2018-05-23T12:34:09.863Z,2.60
2018-05-23T12:35:09.794Z,2.80
2018-05-23T12:36:09.872Z,2.70
2018-05-23T12:37:09.768Z,2.60
2018-05-23T12:38:09.778Z,2.70
2018-05-23T12:39:09.735Z,2.70
2018-05-23T12:40:09.789Z,2.70
2018-05-23T12:41:09.714Z,2.70
2018-05-23T12:42:09.809Z,2.70
2018-05-23T12:43:09.690Z,2.90
2018-05-23T12:44:09.723Z,2.70
2018-05-23T12:45:09.668Z,2.60
2018-05-23T12:46:09.754Z,2.40
2018-05-23T12:47:09.640Z,2.70
2018-05-23T12:48:09.646Z,2.80
2018-05-23T12:49:09.609Z,3.00
2018-05-23T12:50:09.662Z,3.10
2018-05-23T12:51:09.584Z,3.10
2018-05-23T12:52:09.677Z,2.90
2018-05-23T12:53:09.560Z,2.60
2018-05-23T12:54:09.587Z,2.90
2018-05-23T12:55:09.532Z,3.30
2018-05-23T12:56:09.602Z,3.50
2018-05-23T12:57:09.516Z,3.20
2018-05-23T12:58:09.506Z,3.20
2018-05-23T12:59:09.480Z,3.10
2018-05-23T13:00:09.528Z,3.40
2018-05-23T13:01:09.455Z,3.40
2018-05-23T13:02:09.543Z,3.20
2018-05-23T13:03:09.429Z,3.50
2018-05-23T13:04:09.457Z,3.30
2018-05-23T13:05:09.395Z,3.20
2018-05-23T13:06:09.472Z,3.30
2018-05-23T13:07:09.378Z,3.40
2018-05-23T13:08:09.416Z,3.20
2018-05-23T13:09:09.345Z,3.10
2018-05-23T13:10:09.390Z,3.20
2018-05-23T13:11:09.324Z,3.60
2018-05-23T13:12:09.407Z,3.50
2018-05-23T13:13:09.298Z,3.70
2018-05-23T13:14:09.319Z,4.30
2018-05-23T13:15:09.274Z,3.70
2018-05-23T13:16:09.335Z,3.90
2018-05-23T13:17:09.242Z,3.40
2018-05-23T13:18:09.247Z,3.50
2018-05-23T13:19:09.218Z,3.70
2018-05-23T13:20:09.270Z,3.60
2018-05-23T13:21:09.188Z,3.70
2018-05-23T13:22:09.275Z,3.40
2018-05-23T13:23:09.156Z,3.30
2018-05-23T13:24:09.187Z,3.60
2018-05-23T13:25:09.135Z,3.20
2018-05-23T13:26:09.199Z,3.30
2018-05-23T13:27:09.112Z,3.90
2018-05-23T13:28:09.208Z,3.50
2018-05-23T13:29:09.087Z,3.70
2018-05-23T13:30:09.125Z,3.40
2018-05-23T13:31:09.060Z,3.50
2018-05-23T13:32:09.141Z,2.90
2018-05-23T13:33:09.041Z,3.60
2018-05-23T13:34:09.051Z,3.40
2018-05-23T13:35:09.007Z,3.40
2018-05-23T13:36:09.065Z,3.50
2018-05-23T13:37:08.983Z,3.20
2018-05-23T13:38:09.080Z,3.70
2018-05-23T13:39:08.959Z,3.70
2018-05-23T13:40:08.996Z,3.40
2018-05-23T13:41:08.959Z,3.40